createdAt,value
2019-05-05T00:02:37.696Z,6.36
2019-05-05T00:07:45.155Z,7.03
2019-05-05T00:12:54.971Z,7.66
2019-05-05T00:18:00.197Z,6.86
2019-05-05T00:23:07.705Z,6.46
2019-05-05T00:28:15.222Z,6.07
2019-05-05T00:33:24.465Z,6.80
2019-05-05T00:38:30.303Z,6.20
2019-05-05T00:43:37.674Z,6.01
2019-05-05T00:48:45.374Z,6.26
2019-05-05T00:53:52.889Z,6.49
2019-05-05T00:59:00.306Z,6.23
2019-05-05T01:04:08.002Z,5.84
2019-05-05T01:09:15.432Z,5.84
2019-05-05T01:14:24.870Z,6.62
2019-05-05T01:19:30.528Z,6.47
2019-05-05T01:24:38.116Z,6.27
2019-05-05T01:29:45.777Z,6.26
2019-05-05T01:34:54.929Z,5.78
2019-05-05T01:40:00.253Z,6.50
2019-05-05T01:45:07.947Z,5.92
2019-05-05T01:50:20.705Z,6.52
2019-05-05T01:55:22.060Z,6.20
2019-05-05T02:00:29.726Z,5.99
2019-05-05T02:05:37.154Z,6.23
2019-05-05T02:10:45.457Z,6.18
2019-05-05T02:15:52.191Z,5.70
2019-05-05T02:20:59.761Z,6.19
2019-05-05T02:26:07.350Z,5.56
2019-05-05T02:31:16.660Z,5.61
2019-05-05T02:36:25.531Z,4.87
2019-05-05T02:41:29.980Z,5.92
2019-05-05T02:46:37.810Z,5.65
2019-05-05T02:51:44.996Z,5.80
2019-05-05T02:56:54.167Z,5.82
2019-05-05T03:01:59.819Z,5.20
2019-05-05T03:07:07.428Z,5.17
2019-05-05T03:12:15.021Z,5.41
2019-05-05T03:17:23.432Z,5.09
2019-05-05T03:22:29.948Z,5.88
2019-05-05T03:27:37.393Z,5.95
2019-05-05T03:32:45.781Z,5.27
2019-05-05T03:37:54.354Z,6.03
2019-05-05T03:42:59.225Z,5.86
2019-05-05T03:48:07.510Z,5.92
2019-05-05T03:53:15.199Z,5.73
2019-05-05T03:58:24.068Z,6.18
2019-05-05T04:03:30.259Z,6.81
2019-05-05T04:08:37.746Z,5.68
2019-05-05T04:13:45.451Z,5.65
2019-05-05T04:18:54.218Z,5.59
2019-05-05T04:23:59.722Z,5.30
2019-05-05T04:29:07.284Z,5.57
2019-05-05T04:34:14.675Z,5.10
2019-05-05T04:39:23.851Z,5.92
2019-05-05T04:44:30.945Z,5.15
2019-05-05T04:49:38.266Z,5.28
2019-05-05T04:54:45.870Z,5.38
2019-05-05T04:59:54.099Z,5.05
2019-05-05T05:05:00.126Z,5.46
2019-05-05T05:10:07.530Z,5.35
2019-05-05T05:15:15.040Z,4.80
2019-05-05T05:20:22.183Z,4.68
2019-05-05T05:25:29.675Z,4.47
2019-05-05T05:30:37.210Z,4.50
2019-05-05T05:35:44.887Z,4.50
2019-05-05T05:40:53.619Z,5.23
2019-05-05T05:45:59.816Z,5.03
2019-05-05T05:51:07.927Z,4.41
2019-05-05T05:56:15.045Z,4.95
2019-05-05T06:01:23.987Z,4.88
2019-05-05T06:06:29.579Z,5.94
2019-05-05T06:11:36.779Z,5.27
2019-05-05T06:16:44.731Z,5.22
2019-05-05T06:21:54.785Z,5.47
2019-05-05T06:26:54.579Z,6.51
2019-05-05T06:31:59.963Z,6.83
2019-05-05T06:37:07.445Z,5.89
2019-05-05T06:42:15.055Z,6.97
2019-05-05T06:47:23.733Z,7.09
2019-05-05T06:52:41.980Z,9.79
2019-05-05T06:57:37.757Z,14.06
2019-05-05T07:02:45.003Z,15.37
2019-05-05T07:07:53.721Z,15.54
2019-05-05T07:12:59.477Z,15.20
2019-05-05T07:18:07.603Z,15.87
2019-05-05T07:23:15.732Z,17.67
2019-05-05T07:28:23.533Z,16.33
2019-05-05T07:33:30.835Z,18.02
2019-05-05T07:38:38.403Z,18.63
2019-05-05T07:43:46.069Z,19.06
2019-05-05T07:48:54.595Z,21.23
2019-05-05T07:54:03.793Z,20.47
2019-05-05T07:59:09.687Z,17.07
2019-05-05T08:04:17.298Z,18.59
2019-05-05T08:09:25.064Z,18.22
2019-05-05T08:14:33.763Z,16.71
2019-05-05T08:19:39.588Z,17.07
2019-05-05T08:24:46.997Z,15.55
2019-05-05T08:29:54.501Z,15.49
2019-05-05T08:35:04.221Z,16.58
2019-05-05T08:40:08.967Z,15.52
2019-05-05T08:45:17.398Z,14.12
2019-05-05T08:50:27.103Z,13.70
2019-05-05T08:55:33.925Z,14.83
2019-05-05T09:00:40.124Z,13.18
2019-05-05T09:05:47.493Z,13.91
2019-05-05T09:10:55.410Z,11.97
2019-05-05T09:16:03.747Z,11.48
2019-05-05T09:21:10.043Z,11.15
2019-05-05T09:26:17.833Z,10.41
2019-05-05T09:31:25.412Z,12.51
2019-05-05T09:36:34.859Z,12.37
2019-05-05T09:41:40.536Z,11.95
2019-05-05T09:46:48.507Z,11.53
2019-05-05T09:51:55.804Z,10.43
2019-05-05T09:57:04.433Z,11.58
2019-05-05T10:02:09.916Z,10.05
2019-05-05T10:07:17.059Z,11.96
2019-05-05T10:12:24.298Z,9.28
2019-05-05T10:17:33.636Z,10.90
2019-05-05T10:22:39.615Z,9.84
2019-05-05T10:27:47.684Z,9.24
2019-05-05T10:32:54.775Z,8.86
2019-05-05T10:38:02.045Z,11.31
2019-05-05T10:43:09.706Z,9.55
2019-05-05T10:48:17.119Z,9.22
2019-05-05T10:53:24.678Z,9.72
2019-05-05T10:58:33.571Z,8.09
2019-05-05T11:03:39.983Z,9.15
2019-05-05T11:08:47.907Z,9.21
2019-05-05T11:13:55.448Z,10.79
2019-05-05T11:19:04.761Z,9.97
2019-05-05T11:24:14.676Z,9.15
2019-05-05T11:29:19.993Z,7.03
2019-05-05T11:34:27.489Z,9.18
2019-05-05T11:39:36.453Z,8.19
2019-05-05T11:44:43.646Z,5.60
2019-05-05T11:49:56.110Z,6.28
2019-05-05T11:55:09.763Z,5.23
2019-05-05T12:00:06.385Z,6.51
2019-05-05T12:05:15.229Z,6.35
2019-05-05T12:10:23.673Z,6.12
2019-05-05T12:15:30.798Z,8.84
2019-05-05T12:20:38.382Z,7.43
2019-05-05T12:25:45.807Z,6.52
2019-05-05T12:30:55.494Z,5.71
2019-05-05T12:36:04.415Z,8.01
2019-05-05T12:41:10.331Z,6.35
2019-05-05T12:46:17.748Z,5.86
2019-05-05T12:51:25.340Z,6.69
2019-05-05T12:56:33.985Z,6.13
2019-05-05T13:01:40.186Z,6.64
2019-05-05T13:06:47.911Z,5.76
2019-05-05T13:11:55.702Z,4.55
2019-05-05T13:17:03.736Z,5.61
2019-05-05T13:22:10.778Z,5.64
2019-05-05T13:27:19.549Z,7.81
2019-05-05T13:32:25.937Z,7.34
2019-05-05T13:37:33.869Z,8.48
2019-05-05T13:42:41.137Z,6.07
2019-05-05T13:47:48.649Z,6.49
2019-05-05T13:52:56.478Z,6.13
2019-05-05T13:58:04.134Z,5.36
2019-05-05T14:03:11.404Z,5.83
2019-05-05T14:08:18.910Z,4.75
2019-05-05T14:13:26.558Z,4.97
2019-05-05T14:18:34.021Z,5.54
2019-05-05T14:23:43.458Z,5.17
2019-05-05T14:28:48.541Z,5.25
2019-05-05T14:33:55.852Z,6.44
2019-05-05T14:39:04.263Z,6.25
2019-05-05T14:44:10.699Z,8.24
2019-05-05T14:49:18.550Z,6.32
2019-05-05T14:54:25.731Z,7.33
2019-05-05T14:59:34.096Z,8.55
2019-05-05T15:04:41.258Z,6.81
2019-05-05T15:09:48.744Z,8.13
2019-05-05T15:14:56.347Z,6.95
2019-05-05T15:20:03.618Z,6.18
2019-05-05T15:25:11.229Z,5.27
2019-05-05T15:30:19.018Z,6.16
2019-05-05T15:35:26.683Z,6.10
2019-05-05T15:40:33.998Z,7.61
2019-05-05T15:45:43.376Z,6.12
2019-05-05T15:50:48.516Z,6.78
2019-05-05T15:55:57.714Z,6.59
2019-05-05T16:01:05.056Z,6.14
2019-05-05T16:06:14.310Z,6.24
2019-05-05T16:11:23.415Z,5.88
2019-05-05T16:16:30.470Z,6.27
2019-05-05T16:21:37.997Z,7.60
2019-05-05T16:26:45.688Z,7.14
2019-05-05T16:31:54.150Z,6.07
2019-05-05T16:37:03.707Z,5.73
2019-05-05T16:42:08.473Z,6.31
2019-05-05T16:47:16.152Z,5.84
2019-05-05T16:52:23.971Z,6.09
2019-05-05T16:57:34.116Z,6.46
2019-05-05T17:02:38.369Z,5.66
2019-05-05T17:07:45.589Z,5.96
2019-05-05T17:12:53.228Z,5.77
2019-05-05T17:18:00.688Z,6.12
2019-05-05T17:23:08.520Z,6.80
2019-05-05T17:28:16.373Z,7.62
2019-05-05T17:33:24.214Z,7.49
2019-05-05T17:38:34.021Z,5.59
2019-05-05T17:43:39.771Z,6.49
2019-05-05T17:48:47.411Z,6.21
2019-05-05T17:53:55.112Z,6.62
2019-05-05T17:59:03.487Z,7.66
2019-05-05T18:04:10.302Z,6.31
2019-05-05T18:09:18.473Z,7.75
2019-05-05T18:14:26.838Z,6.60
2019-05-05T18:19:35.969Z,7.08
2019-05-05T18:24:44.984Z,7.16
2019-05-05T18:29:54.631Z,7.00
2019-05-05T18:35:06.361Z,5.94
2019-05-05T18:40:11.807Z,6.35
2019-05-05T18:45:19.583Z,6.72
2019-05-05T18:50:27.049Z,5.59
2019-05-05T18:55:34.870Z,6.00
2019-05-05T19:00:43.888Z,6.66
2019-05-05T19:05:50.628Z,7.28
2019-05-05T19:10:58.735Z,5.96
2019-05-05T19:16:08.091Z,7.58
2019-05-05T19:21:17.647Z,7.33
2019-05-05T19:26:25.957Z,5.89
2019-05-05T19:31:36.560Z,5.90
2019-05-05T19:36:44.839Z,6.72
2019-05-05T19:41:50.295Z,7.20
2019-05-05T19:46:58.081Z,7.88
2019-05-05T19:52:05.850Z,6.13
2019-05-05T19:57:14.407Z,5.97
2019-05-05T20:02:20.340Z,7.13
2019-05-05T20:07:27.988Z,6.60
2019-05-05T20:12:35.484Z,5.97
2019-05-05T20:17:44.505Z,6.51
2019-05-05T20:22:50.671Z,6.13
2019-05-05T20:27:58.313Z,5.88
2019-05-05T20:33:05.977Z,6.65
2019-05-05T20:38:14.285Z,6.72
2019-05-05T20:43:21.794Z,6.26
2019-05-05T20:48:29.507Z,6.28
2019-05-05T20:53:37.310Z,6.28
2019-05-05T20:58:44.596Z,6.11
2019-05-05T21:03:53.583Z,6.94
2019-05-05T21:14:05.230Z,6.15
2019-05-05T21:19:04.904Z,7.25
2019-05-05T21:24:12.714Z,6.61
2019-05-05T21:29:20.545Z,8.18
2019-05-05T21:34:28.500Z,7.22
2019-05-05T21:39:36.298Z,6.84
2019-05-05T21:44:44.393Z,6.48
2019-05-05T21:49:51.240Z,6.60
2019-05-05T21:54:58.899Z,6.56
2019-05-05T22:00:06.393Z,6.84
2019-05-05T22:05:14.630Z,6.21
2019-05-05T22:10:21.254Z,7.57
2019-05-05T22:15:28.753Z,6.91
2019-05-05T22:20:36.774Z,6.50
2019-05-05T22:25:43.816Z,8.59
2019-05-05T22:30:51.311Z,6.01
2019-05-05T22:35:58.911Z,7.34
2019-05-05T22:41:06.674Z,7.32
2019-05-05T22:46:14.398Z,7.65
2019-05-05T22:51:22.029Z,7.06
2019-05-05T22:56:29.619Z,7.31
2019-05-05T23:01:37.196Z,6.31
2019-05-05T23:06:44.891Z,7.17
2019-05-05T23:11:54.461Z,6.60
2019-05-05T23:16:59.818Z,6.96
2019-05-05T23:22:07.199Z,6.81
2019-05-05T23:27:14.775Z,7.15
2019-05-05T23:32:24.233Z,7.69
2019-05-05T23:37:29.807Z,7.88
2019-05-05T23:42:37.201Z,7.10
2019-05-05T23:47:44.832Z,7.18
2019-05-05T23:52:54.173Z,6.83
2019-05-05T23:57:59.774Z,7.17
